Time;durP1;ratioP1;P1;durP2;ratioP2;P2;SDS_P1;SDS_P2;PMS_P1;PMS_P2;Temp;Humidity;BMP_temperature;BMP_pressure;BME280_temperature;BME280_humidity;BME280_pressure;Samples;Min_cycle;Max_cycle;Signal;HPM_P1;HPM_P2
2022/03/29 00:01:56;;;;;;;14.57;10.90;;;;;;;;;;5019968;28;20030;-62
2022/03/29 00:04:22;;;;;;;14.73;10.45;;;;;;;;;;5020252;28;20029;-62
2022/03/29 00:06:48;;;;;;;12.43;10.18;;;;;;;;;;5027207;28;20029;-62
2022/03/29 00:09:14;;;;;;;17.15;9.88;;;;;;;;;;5021779;28;20041;-61
2022/03/29 00:11:40;;;;;;;15.15;9.93;;;;;;;;;;5018886;28;20107;-62
2022/03/29 00:14:06;;;;;;;18.73;10.32;;;;;;;;;;5019958;28;20073;-62
2022/03/29 00:16:35;;;;;;;16.42;10.25;;;;;;;;;;5019583;28;20029;-62
2022/03/29 00:19:01;;;;;;;17.92;9.98;;;;;;;;;;5014720;28;20033;-61
2022/03/29 00:21:27;;;;;;;14.38;9.52;;;;;;;;;;5015441;28;20034;-61
2022/03/29 00:23:53;;;;;;;22.20;10.25;;;;;;;;;;5019382;28;20045;-61
2022/03/29 00:26:19;;;;;;;15.35;10.27;;;;;;;;;;5024491;28;20422;-61
2022/03/29 00:28:44;;;;;;;20.95;10.73;;;;;;;;;;5019212;28;21828;-61
2022/03/29 00:31:12;;;;;;;12.02;9.57;;;;;;;;;;5020964;28;20104;-62
2022/03/29 00:33:38;;;;;;;12.88;9.45;;;;;;;;;;5014844;28;20049;-61
2022/03/29 00:36:04;;;;;;;14.57;9.85;;;;;;;;;;5020100;28;20769;-62
2022/03/29 00:38:30;;;;;;;11.88;8.77;;;;;;;;;;5013968;28;20034;-62
2022/03/29 00:40:57;;;;;;;14.35;10.18;;;;;;;;;;5018490;28;20088;-62
2022/03/29 00:43:23;;;;;;;17.05;10.63;;;;;;;;;;5018072;28;20033;-62
2022/03/29 00:45:50;;;;;;;13.38;9.45;;;;;;;;;;5016513;28;20034;-62
2022/03/29 00:48:15;;;;;;;13.85;10.40;;;;;;;;;;5017036;28;20104;-61
2022/03/29 00:50:42;;;;;;;17.05;9.70;;;;;;;;;;5016265;28;20036;-62
2022/03/29 00:53:09;;;;;;;13.50;9.55;;;;;;;;;;5013667;28;20060;-62
2022/03/29 00:55:35;;;;;;;15.55;10.05;;;;;;;;;;5018954;28;20017;-61
2022/03/29 00:58:03;;;;;;;16.83;9.38;;;;;;;;;;5015178;28;20064;-62
2022/03/29 01:00:31;;;;;;;11.30;9.30;;;;;;;;;;5024828;28;20055;-62
2022/03/29 01:02:58;;;;;;;14.52;9.45;;;;;;;;;;5021277;28;20091;-61
2022/03/29 01:05:26;;;;;;;13.35;10.00;;;;;;;;;;5017895;28;20044;-62
2022/03/29 01:07:54;;;;;;;12.40;9.60;;;;;;;;;;5015310;28;20046;-61
2022/03/29 01:10:20;;;;;;;13.80;9.43;;;;;;;;;;5023395;28;20032;-61
2022/03/29 01:12:46;;;;;;;12.88;9.65;;;;;;;;;;5024199;28;20052;-62
2022/03/29 01:15:13;;;;;;;14.85;9.40;;;;;;;;;;5014842;28;20520;-62
2022/03/29 01:17:41;;;;;;;11.55;9.35;;;;;;;;;;5020093;28;20030;-62
2022/03/29 01:20:07;;;;;;;14.15;9.02;;;;;;;;;;5017536;28;20040;-61
2022/03/29 01:22:35;;;;;;;17.98;10.07;;;;;;;;;;5019817;28;20141;-62
2022/03/29 01:25:01;;;;;;;13.80;9.27;;;;;;;;;;5016210;28;20487;-61
2022/03/29 01:27:31;;;;;;;12.88;9.50;;;;;;;;;;5020527;28;20450;-61
2022/03/29 01:29:59;;;;;;;14.70;9.23;;;;;;;;;;5021685;28;20029;-61
2022/03/29 01:32:29;;;;;;;12.02;9.15;;;;;;;;;;5015522;28;20072;-62
2022/03/29 01:34:57;;;;;;;14.90;9.43;;;;;;;;;;5017817;28;20041;-61
2022/03/29 01:37:24;;;;;;;11.00;8.98;;;;;;;;;;5018174;28;20052;-61
2022/03/29 01:39:50;;;;;;;15.40;9.77;;;;;;;;;;5026593;28;20076;-61
2022/03/29 01:42:18;;;;;;;13.95;9.75;;;;;;;;;;5016852;28;20053;-61
2022/03/29 01:44:44;;;;;;;14.02;9.38;;;;;;;;;;5022006;28;20394;-62
2022/03/29 01:47:10;;;;;;;17.73;10.00;;;;;;;;;;5019166;28;20117;-61
2022/03/29 01:49:37;;;;;;;12.25;8.98;;;;;;;;;;5015678;28;20117;-61
2022/03/29 01:52:04;;;;;;;14.32;9.43;;;;;;;;;;5020618;28;20091;-61
2022/03/29 01:54:31;;;;;;;17.88;9.30;;;;;;;;;;5024879;28;20553;-61
2022/03/29 01:56:57;;;;;;;15.82;9.48;;;;;;;;;;5020914;28;20431;-62
2022/03/29 01:59:23;;;;;;;12.07;9.10;;;;;;;;;;5015869;28;20038;-61
2022/03/29 02:01:50;;;;;;;15.48;9.40;;;;;;;;;;5015302;28;20029;-61
2022/03/29 02:04:17;;;;;;;18.02;10.18;;;;;;;;;;5013554;28;20033;-61
2022/03/29 02:06:42;;;;;;;13.48;9.77;;;;;;;;;;5014262;28;20054;-62
2022/03/29 02:09:10;;;;;;;16.10;9.65;;;;;;;;;;5013482;28;20069;-61
2022/03/29 02:11:40;;;;;;;20.85;9.32;;;;;;;;;;5023754;28;20026;-61
2022/03/29 02:14:06;;;;;;;14.70;9.68;;;;;;;;;;5016031;28;20029;-61
2022/03/29 02:16:33;;;;;;;13.13;9.52;;;;;;;;;;5017727;28;20033;-61
2022/03/29 02:18:59;;;;;;;13.73;9.15;;;;;;;;;;5013491;28;20052;-62
2022/03/29 02:21:25;;;;;;;12.25;9.18;;;;;;;;;;5021789;28;20394;-61
2022/03/29 02:23:51;;;;;;;15.45;9.30;;;;;;;;;;5017631;28;20113;-61
2022/03/29 02:26:17;;;;;;;15.55;9.93;;;;;;;;;;5016682;28;20041;-61
2022/03/29 02:28:43;;;;;;;18.13;10.50;;;;;;;;;;5018003;28;20033;-61
2022/03/29 02:31:10;;;;;;;12.30;9.57;;;;;;;;;;5015471;28;20069;-62
2022/03/29 02:33:36;;;;;;;12.55;8.90;;;;;;;;;;5012511;28;20617;-61
2022/03/29 02:36:02;;;;;;;17.80;10.27;;;;;;;;;;5016951;28;20387;-61
2022/03/29 02:38:28;;;;;;;13.27;9.52;;;;;;;;;;5019844;28;20578;-61
2022/03/29 02:40:57;;;;;;;10.13;8.98;;;;;;;;;;5018823;28;20030;-61
2022/03/29 02:43:24;;;;;;;15.70;9.38;;;;;;;;;;5014946;28;20049;-61
2022/03/29 02:45:50;;;;;;;11.20;9.35;;;;;;;;;;5014309;28;20037;-61
2022/03/29 02:48:16;;;;;;;12.77;9.50;;;;;;;;;;5016520;28;20047;-61
2022/03/29 02:50:42;;;;;;;14.05;9.30;;;;;;;;;;5018268;28;20049;-62
2022/03/29 02:53:08;;;;;;;16.55;9.68;;;;;;;;;;5016183;28;20060;-62
2022/03/29 02:55:34;;;;;;;12.68;9.30;;;;;;;;;;5017828;28;20026;-61
2022/03/29 02:58:00;;;;;;;13.07;9.60;;;;;;;;;;5019576;28;20386;-62
2022/03/29 03:00:26;;;;;;;13.90;9.50;;;;;;;;;;5014516;28;20036;-61
2022/03/29 03:02:54;;;;;;;13.27;9.02;;;;;;;;;;5018370;28;20033;-61
2022/03/29 03:05:20;;;;;;;16.30;9.68;;;;;;;;;;5012594;28;20075;-61
2022/03/29 03:07:47;;;;;;;11.98;9.18;;;;;;;;;;5013325;28;20026;-61
2022/03/29 03:10:14;;;;;;;11.70;8.52;;;;;;;;;;5011860;28;20033;-60
2022/03/29 03:12:45;;;;;;;14.43;9.70;;;;;;;;;;5020762;28;20018;-62
2022/03/29 03:15:14;;;;;;;12.68;9.40;;;;;;;;;;5012867;28;20036;-62
2022/03/29 03:17:40;;;;;;;15.02;9.20;;;;;;;;;;5015494;28;20033;-62
2022/03/29 03:20:07;;;;;;;10.82;9.23;;;;;;;;;;5020200;28;20057;-62
2022/03/29 03:22:35;;;;;;;13.20;9.27;;;;;;;;;;5023293;28;20037;-62
2022/03/29 03:25:01;;;;;;;16.08;9.45;;;;;;;;;;5013189;28;20513;-61
2022/03/29 03:27:28;;;;;;;12.73;9.48;;;;;;;;;;5018295;28;20493;-62
2022/03/29 03:29:53;;;;;;;15.15;9.88;;;;;;;;;;5017883;28;20033;-62
2022/03/29 03:32:19;;;;;;;11.60;9.35;;;;;;;;;;5020023;28;20558;-62
2022/03/29 03:34:44;;;;;;;13.65;9.48;;;;;;;;;;5016415;28;20367;-62
2022/03/29 03:37:10;;;;;;;15.80;9.80;;;;;;;;;;5018985;28;20036;-61
2022/03/29 03:39:39;;;;;;;11.05;8.82;;;;;;;;;;5016647;28;20036;-62
2022/03/29 03:42:07;;;;;;;12.73;9.38;;;;;;;;;;5022584;28;20387;-62
2022/03/29 03:44:33;;;;;;;11.80;8.80;;;;;;;;;;5019472;28;20050;-61
2022/03/29 03:47:00;;;;;;;11.32;9.15;;;;;;;;;;5016143;28;20470;-61
2022/03/29 03:49:26;;;;;;;12.95;8.82;;;;;;;;;;5018869;28;20037;-61
2022/03/29 03:51:52;;;;;;;12.30;9.77;;;;;;;;;;5018665;28;20072;-62
2022/03/29 03:54:18;;;;;;;12.18;9.20;;;;;;;;;;5010320;28;20041;-62
2022/03/29 03:56:43;;;;;;;14.98;10.02;;;;;;;;;;5018913;28;20030;-62
2022/03/29 03:59:09;;;;;;;11.90;9.15;;;;;;;;;;5016880;28;20083;-62
2022/03/29 04:01:35;;;;;;;12.15;8.88;;;;;;;;;;5015701;28;20041;-61
2022/03/29 04:04:20;;;;;;;15.50;9.43;;;;;;;;;;5016518;28;20088;-62
2022/03/29 04:06:54;;;;;;;13.98;10.07;;;;;;;;;;5015763;28;20037;-62
2022/03/29 04:09:19;;;;;;;12.27;8.90;;;;;;;;;;5015612;28;20030;-62
2022/03/29 04:11:45;;;;;;;14.32;9.93;;;;;;;;;;5022271;28;20438;-62
2022/03/29 04:14:11;;;;;;;15.95;9.38;;;;;;;;;;5014266;28;20034;-62
2022/03/29 04:16:36;;;;;;;12.77;8.50;;;;;;;;;;5017456;28;20036;-62
2022/03/29 04:19:02;;;;;;;12.35;9.18;;;;;;;;;;5019913;28;20044;-62
2022/03/29 04:21:28;;;;;;;12.50;9.32;;;;;;;;;;5013519;28;20033;-62
2022/03/29 04:23:54;;;;;;;12.68;8.98;;;;;;;;;;5019612;28;20390;-62
2022/03/29 04:26:19;;;;;;;13.30;9.68;;;;;;;;;;5015756;28;20541;-62
2022/03/29 04:28:45;;;;;;;12.27;9.43;;;;;;;;;;5021568;28;20449;-61
2022/03/29 04:31:11;;;;;;;16.63;9.85;;;;;;;;;;5016926;28;20033;-62
2022/03/29 04:33:37;;;;;;;14.80;9.40;;;;;;;;;;5025114;28;20025;-62
2022/03/29 04:36:04;;;;;;;14.32;8.80;;;;;;;;;;5013053;28;20466;-61
2022/03/29 04:38:30;;;;;;;11.93;9.48;;;;;;;;;;5022872;28;20029;-62
2022/03/29 04:40:55;;;;;;;14.25;8.93;;;;;;;;;;5020220;28;20375;-61
2022/03/29 04:43:21;;;;;;;12.98;9.43;;;;;;;;;;5025730;28;20109;-62
2022/03/29 04:45:47;;;;;;;13.48;9.57;;;;;;;;;;5015761;28;20034;-62
2022/03/29 04:48:14;;;;;;;13.68;9.70;;;;;;;;;;5013615;28;20383;-61
2022/03/29 04:50:40;;;;;;;14.15;8.98;;;;;;;;;;5018091;28;20030;-61
2022/03/29 04:53:07;;;;;;;11.35;9.07;;;;;;;;;;5014996;28;20038;-62
2022/03/29 04:55:33;;;;;;;12.60;9.38;;;;;;;;;;5013721;28;20439;-61
2022/03/29 04:58:00;;;;;;;15.32;9.05;;;;;;;;;;5013021;28;20088;-62
2022/03/29 05:00:27;;;;;;;14.02;9.07;;;;;;;;;;5013312;28;20021;-62
2022/03/29 05:02:53;;;;;;;13.38;9.00;;;;;;;;;;5020877;28;20033;-60
2022/03/29 05:05:18;;;;;;;15.00;9.38;;;;;;;;;;5013976;28;20034;-61
2022/03/29 05:07:44;;;;;;;13.18;9.98;;;;;;;;;;5022319;28;20116;-61
2022/03/29 05:10:11;;;;;;;12.13;9.60;;;;;;;;;;5022522;28;20116;-62
2022/03/29 05:12:45;;;;;;;13.85;9.73;;;;;;;;;;5017421;28;20049;-61
2022/03/29 05:15:13;;;;;;;16.92;9.48;;;;;;;;;;5020954;28;20033;-61
2022/03/29 05:17:42;;;;;;;11.65;9.10;;;;;;;;;;5020248;28;20060;-61
2022/03/29 05:20:08;;;;;;;19.38;9.60;;;;;;;;;;5024659;28;20095;-62
2022/03/29 05:22:57;;;;;;;15.15;8.88;;;;;;;;;;5015404;28;20041;-62
2022/03/29 05:25:24;;;;;;;13.23;9.18;;;;;;;;;;5017630;28;20041;-61
2022/03/29 05:27:51;;;;;;;17.70;9.30;;;;;;;;;;5015218;28;20479;-61
2022/03/29 05:30:18;;;;;;;12.02;9.45;;;;;;;;;;5020653;28;20087;-61
2022/03/29 05:32:43;;;;;;;14.90;9.48;;;;;;;;;;5013744;28;20026;-61
2022/03/29 05:35:11;;;;;;;14.13;9.15;;;;;;;;;;5022601;28;20481;-61
2022/03/29 05:37:38;;;;;;;12.65;8.88;;;;;;;;;;5017006;28;20030;-61
2022/03/29 05:40:09;;;;;;;11.82;9.05;;;;;;;;;;5015450;28;20581;-61
2022/03/29 05:42:42;;;;;;;16.88;9.23;;;;;;;;;;5017803;28;20041;-62
2022/03/29 05:45:10;;;;;;;13.90;9.73;;;;;;;;;;5019685;28;20390;-61
2022/03/29 05:50:27;;;;;;;15.98;9.95;;;;;;;;;;4981344;28;20038;-61
2022/03/29 05:52:54;;;;;;;16.55;9.25;;;;;;;;;;4982595;28;20109;-60
2022/03/29 05:55:20;;;;;;;14.27;9.32;;;;;;;;;;4986523;28;20045;-61
2022/03/29 05:57:49;;;;;;;12.85;8.85;;;;;;;;;;4978146;28;20042;-61
2022/03/29 06:00:16;;;;;;;16.83;9.52;;;;;;;;;;4982138;28;20034;-61
2022/03/29 06:02:43;;;;;;;20.70;9.27;;;;;;;;;;4980351;28;20130;-62
2022/03/29 06:05:09;;;;;;;16.08;9.15;;;;;;;;;;4984184;28;20495;-61
2022/03/29 06:07:36;;;;;;;14.27;9.20;;;;;;;;;;4985225;28;20038;-61
2022/03/29 06:10:06;;;;;;;16.33;8.98;;;;;;;;;;4981344;28;20373;-62
2022/03/29 06:12:31;;;;;;;15.10;9.23;;;;;;;;;;4979933;28;20439;-61
2022/03/29 06:14:57;;;;;;;13.23;9.07;;;;;;;;;;4979990;28;20097;-62
2022/03/29 06:17:23;;;;;;;16.35;9.23;;;;;;;;;;4985403;28;20062;-61
2022/03/29 06:19:49;;;;;;;15.82;9.43;;;;;;;;;;4985353;28;20034;-61
2022/03/29 06:22:14;;;;;;;18.77;9.90;;;;;;;;;;4984927;28;20049;-61
2022/03/29 06:24:40;;;;;;;17.38;9.88;;;;;;;;;;4979980;28;20094;-61
2022/03/29 06:27:07;;;;;;;18.20;9.43;;;;;;;;;;4997306;28;20076;-61
2022/03/29 06:29:34;;;;;;;11.93;8.80;;;;;;;;;;5019275;28;20092;-62
2022/03/29 06:32:01;;;;;;;15.65;8.13;;;;;;;;;;5020566;28;20487;-61
2022/03/29 06:34:29;;;;;;;13.00;8.43;;;;;;;;;;5021453;28;20115;-61
2022/03/29 06:36:55;;;;;;;20.35;8.93;;;;;;;;;;5016816;28;20041;-60
2022/03/29 06:39:21;;;;;;;21.67;9.65;;;;;;;;;;5016586;28;20146;-61
2022/03/29 06:41:47;;;;;;;12.63;9.10;;;;;;;;;;5021823;28;20029;-61
2022/03/29 06:44:13;;;;;;;14.38;9.38;;;;;;;;;;5015305;28;20490;-60
2022/03/29 06:46:39;;;;;;;15.38;8.98;;;;;;;;;;5012487;28;20057;-61
2022/03/29 06:49:06;;;;;;;21.35;9.95;;;;;;;;;;5010486;28;20022;-61
2022/03/29 06:51:33;;;;;;;11.02;9.07;;;;;;;;;;5011842;28;20049;-61
2022/03/29 06:54:00;;;;;;;16.42;9.52;;;;;;;;;;5012121;28;20049;-61
2022/03/29 06:56:26;;;;;;;14.32;8.68;;;;;;;;;;5018186;28;20042;-62
2022/03/29 06:58:52;;;;;;;11.63;9.23;;;;;;;;;;5017350;28;20037;-61
2022/03/29 07:01:18;;;;;;;20.33;9.50;;;;;;;;;;5016454;28;20041;-61
2022/03/29 07:03:43;;;;;;;14.35;9.30;;;;;;;;;;5013772;28;20130;-61
2022/03/29 07:06:09;;;;;;;17.05;9.60;;;;;;;;;;5011244;28;20034;-62
2022/03/29 07:08:35;;;;;;;15.70;9.13;;;;;;;;;;5015986;28;20068;-61
2022/03/29 07:13:56;;;;;;;12.90;9.18;;;;;;;;;;5013950;28;20056;-62
2022/03/29 07:16:22;;;;;;;15.95;9.02;;;;;;;;;;5014735;28;20026;-62
2022/03/29 07:18:48;;;;;;;18.17;9.65;;;;;;;;;;5012410;28;20436;-62
2022/03/29 07:21:13;;;;;;;14.57;9.52;;;;;;;;;;5018521;28;20394;-62
2022/03/29 07:23:40;;;;;;;15.68;9.13;;;;;;;;;;5014502;28;20041;-61
2022/03/29 07:26:06;;;;;;;14.98;9.57;;;;;;;;;;5017352;28;20117;-62
2022/03/29 07:28:32;;;;;;;16.60;9.60;;;;;;;;;;5017053;28;20075;-62
2022/03/29 07:30:58;;;;;;;11.75;8.82;;;;;;;;;;5018607;28;20046;-61
2022/03/29 07:33:23;;;;;;;15.90;9.25;;;;;;;;;;5043821;28;20108;-62
2022/03/29 07:35:49;;;;;;;15.32;8.82;;;;;;;;;;5020338;28;20028;-61
2022/03/29 07:38:15;;;;;;;12.02;8.55;;;;;;;;;;5013979;28;20041;-61
2022/03/29 07:40:43;;;;;;;13.48;9.07;;;;;;;;;;5020219;28;20094;-62
2022/03/29 07:43:11;;;;;;;15.18;9.52;;;;;;;;;;5017092;28;20049;-62
2022/03/29 07:45:37;;;;;;;16.20;9.15;;;;;;;;;;5011633;28;20052;-62
2022/03/29 07:48:04;;;;;;;15.95;8.95;;;;;;;;;;5017346;28;20072;-62
2022/03/29 07:50:31;;;;;;;11.15;8.60;;;;;;;;;;5020776;28;20116;-62
2022/03/29 07:52:59;;;;;;;12.45;9.23;;;;;;;;;;5019013;28;20061;-61
2022/03/29 07:55:26;;;;;;;21.65;9.20;;;;;;;;;;5021408;28;20104;-62
2022/03/29 07:57:52;;;;;;;11.25;7.95;;;;;;;;;;5017753;28;20025;-62
2022/03/29 08:00:35;;;;;;;15.27;9.57;;;;;;;;;;5021713;28;20033;-61
2022/03/29 08:03:12;;;;;;;19.45;10.30;;;;;;;;;;5029339;28;20490;-62
2022/03/29 08:05:41;;;;;;;14.57;8.85;;;;;;;;;;5022376;28;20034;-62
2022/03/29 08:08:07;;;;;;;26.35;10.00;;;;;;;;;;5025120;28;20025;-62
2022/03/29 08:10:33;;;;;;;22.65;9.65;;;;;;;;;;5026261;28;20123;-62
2022/03/29 08:13:06;;;;;;;14.73;8.63;;;;;;;;;;5016030;28;20049;-62
2022/03/29 08:15:32;;;;;;;16.05;8.30;;;;;;;;;;5022346;28;20017;-62
2022/03/29 08:17:59;;;;;;;15.70;8.40;;;;;;;;;;5018209;28;20034;-62
2022/03/29 08:20:25;;;;;;;14.77;8.73;;;;;;;;;;5016398;28;20022;-62
2022/03/29 08:22:53;;;;;;;11.82;8.27;;;;;;;;;;5021627;28;20061;-62
2022/03/29 08:25:21;;;;;;;14.63;9.55;;;;;;;;;;5026593;28;20040;-62
2022/03/29 08:27:49;;;;;;;16.88;9.20;;;;;;;;;;5017645;28;20044;-62
2022/03/29 08:30:17;;;;;;;19.95;9.52;;;;;;;;;;5020168;28;20038;-62
2022/03/29 08:32:44;;;;;;;22.58;9.40;;;;;;;;;;5022481;28;20025;-62
2022/03/29 08:35:12;;;;;;;30.13;10.00;;;;;;;;;;5025150;28;20069;-62
2022/03/29 08:37:39;;;;;;;19.00;9.00;;;;;;;;;;5016974;28;20034;-62
2022/03/29 08:40:13;;;;;;;21.30;9.75;;;;;;;;;;5014602;28;20037;-62
2022/03/29 08:42:42;;;;;;;28.60;10.27;;;;;;;;;;5020531;28;20037;-62
2022/03/29 08:45:09;;;;;;;18.23;9.07;;;;;;;;;;5021746;28;20030;-62
2022/03/29 08:47:36;;;;;;;19.67;8.43;;;;;;;;;;5023739;28;20030;-62
2022/03/29 08:50:04;;;;;;;13.38;9.13;;;;;;;;;;5018676;28;20034;-62
2022/03/29 08:52:31;;;;;;;22.15;9.38;;;;;;;;;;5016654;28;20569;-62
2022/03/29 08:54:57;;;;;;;15.82;9.65;;;;;;;;;;5015708;28;20029;-63
2022/03/29 08:57:23;;;;;;;16.23;9.40;;;;;;;;;;5021508;28;20030;-62
2022/03/29 08:59:49;;;;;;;17.30;9.93;;;;;;;;;;5022200;28;20100;-62
2022/03/29 09:02:16;;;;;;;21.48;10.02;;;;;;;;;;5015667;28;20084;-62
2022/03/29 09:05:06;;;;;;;21.52;10.30;;;;;;;;;;5020419;28;20124;-62
2022/03/29 09:07:59;;;;;;;23.30;10.73;;;;;;;;;;5018710;28;20033;-62
2022/03/29 09:10:46;;;;;;;28.98;9.43;;;;;;;;;;5018200;28;20369;-62
2022/03/29 09:13:28;;;;;;;23.05;9.75;;;;;;;;;;5017856;28;20048;-62
2022/03/29 09:15:56;;;;;;;22.42;9.60;;;;;;;;;;5013796;28;20042;-62
2022/03/29 09:18:22;;;;;;;18.67;9.38;;;;;;;;;;5019643;28;20542;-61
2022/03/29 09:21:05;;;;;;;16.23;8.65;;;;;;;;;;5011912;28;20038;-62
2022/03/29 09:23:31;;;;;;;23.75;9.77;;;;;;;;;;5024088;28;20522;-62
2022/03/29 09:25:57;;;;;;;15.65;8.63;;;;;;;;;;5017767;28;20558;-62
2022/03/29 09:28:22;;;;;;;15.00;8.73;;;;;;;;;;5017094;28;20108;-62
2022/03/29 09:30:52;;;;;;;15.60;8.90;;;;;;;;;;5013941;28;20055;-62
2022/03/29 09:33:20;;;;;;;16.55;9.38;;;;;;;;;;5016475;28;20029;-62
2022/03/29 09:36:03;;;;;;;23.65;9.25;;;;;;;;;;5018256;28;20517;-62
2022/03/29 09:38:32;;;;;;;20.35;8.70;;;;;;;;;;5022624;28;20061;-62
2022/03/29 09:41:00;;;;;;;18.55;9.60;;;;;;;;;;5019569;28;20495;-61
2022/03/29 09:43:27;;;;;;;18.60;9.13;;;;;;;;;;5014186;28;20449;-62
2022/03/29 09:45:57;;;;;;;19.08;8.18;;;;;;;;;;5023154;28;20038;-62
2022/03/29 09:48:27;;;;;;;16.95;8.32;;;;;;;;;;5016792;28;24789;-62
2022/03/29 09:51:18;;;;;;;21.45;9.02;;;;;;;;;;5016319;28;20423;-60
2022/03/29 09:53:45;;;;;;;18.10;8.15;;;;;;;;;;5014661;28;20487;-62
2022/03/29 09:56:13;;;;;;;18.75;7.72;;;;;;;;;;5016156;28;20033;-62
2022/03/29 09:58:40;;;;;;;14.52;6.97;;;;;;;;;;5019471;28;20079;-62
2022/03/29 10:01:20;;;;;;;27.77;8.15;;;;;;;;;;5019446;28;20033;-62
2022/03/29 10:03:47;;;;;;;17.45;7.43;;;;;;;;;;5013139;28;20030;-62
2022/03/29 10:06:15;;;;;;;19.85;7.80;;;;;;;;;;5015007;28;20589;-62
2022/03/29 10:11:32;;;;;;;15.05;6.35;;;;;;;;;;5019446;28;20022;-62
2022/03/29 10:14:00;;;;;;;21.60;7.03;;;;;;;;;;5015729;28;20033;-62
2022/03/29 10:16:27;;;;;;;21.33;6.82;;;;;;;;;;5021228;28;20052;-62
2022/03/29 10:18:54;;;;;;;18.80;6.35;;;;;;;;;;5015342;28;20033;-60
2022/03/29 10:21:20;;;;;;;20.27;7.00;;;;;;;;;;5016815;28;20038;-61
2022/03/29 10:23:49;;;;;;;14.52;6.30;;;;;;;;;;5016734;28;20083;-62
2022/03/29 10:26:24;;;;;;;10.90;5.60;;;;;;;;;;5022358;28;20033;-61
2022/03/29 10:28:51;;;;;;;22.95;6.20;;;;;;;;;;5010894;28;20041;-62
2022/03/29 10:31:33;;;;;;;27.67;5.32;;;;;;;;;;5017720;28;20525;-62
2022/03/29 10:34:14;;;;;;;13.80;4.57;;;;;;;;;;5018554;28;20041;-62
2022/03/29 10:37:11;;;;;;;20.70;5.25;;;;;;;;;;5011060;28;20109;-62
2022/03/29 10:39:45;;;;;;;10.27;4.53;;;;;;;;;;5014744;28;20076;-63
2022/03/29 10:42:26;;;;;;;7.05;4.20;;;;;;;;;;5012586;28;20088;-62
2022/03/29 10:45:13;;;;;;;5.60;4.43;;;;;;;;;;5011734;28;20472;-62
2022/03/29 10:47:40;;;;;;;16.33;5.60;;;;;;;;;;5019487;28;20037;-62
2022/03/29 10:50:08;;;;;;;11.50;4.15;;;;;;;;;;5019460;28;20086;-62
2022/03/29 10:52:46;;;;;;;14.38;4.00;;;;;;;;;;5012292;28;20045;-62
2022/03/29 10:55:22;;;;;;;12.25;4.30;;;;;;;;;;5015271;28;20116;-62
2022/03/29 10:58:13;;;;;;;8.88;3.47;;;;;;;;;;5014518;28;20116;-62
2022/03/29 11:00:42;;;;;;;8.70;4.40;;;;;;;;;;5019500;28;20033;-62
2022/03/29 11:03:08;;;;;;;7.45;3.70;;;;;;;;;;5012140;28;20061;-62
2022/03/29 11:06:07;;;;;;;8.77;4.10;;;;;;;;;;5013814;28;20057;-61
2022/03/29 11:08:46;;;;;;;10.60;5.30;;;;;;;;;;5019331;28;20134;-62
2022/03/29 11:11:40;;;;;;;12.38;4.00;;;;;;;;;;5014254;28;20594;-62
2022/03/29 11:14:31;;;;;;;11.48;4.35;;;;;;;;;;5016868;28;20537;-62
2022/03/29 11:17:06;;;;;;;19.13;4.65;;;;;;;;;;5022373;28;20025;-62
2022/03/29 11:20:00;;;;;;;12.88;4.07;;;;;;;;;;5013976;28;20475;-62
2022/03/29 11:22:30;;;;;;;11.00;4.50;;;;;;;;;;5013951;28;20075;-62
2022/03/29 11:24:59;;;;;;;16.95;4.38;;;;;;;;;;5012286;28;20382;-62
2022/03/29 11:27:26;;;;;;;16.40;4.20;;;;;;;;;;5017979;28;20048;-62
2022/03/29 11:29:54;;;;;;;13.90;4.75;;;;;;;;;;5017953;28;20513;-62
2022/03/29 11:32:19;;;;;;;8.52;4.30;;;;;;;;;;5017434;28;20045;-62
2022/03/29 11:34:50;;;;;;;5.88;3.63;;;;;;;;;;5015725;28;20028;-62
2022/03/29 11:37:32;;;;;;;12.18;4.40;;;;;;;;;;5048067;28;20129;-62
2022/03/29 11:40:00;;;;;;;14.43;4.70;;;;;;;;;;5017343;28;20076;-62
2022/03/29 11:42:49;;;;;;;12.70;4.38;;;;;;;;;;5010787;28;20391;-62
2022/03/29 11:45:17;;;;;;;12.07;4.22;;;;;;;;;;5012833;28;20384;-62
2022/03/29 11:47:53;;;;;;;26.48;4.47;;;;;;;;;;5017846;28;20034;-61
2022/03/29 11:50:35;;;;;;;18.02;4.38;;;;;;;;;;5015429;28;20442;-62
2022/03/29 11:53:15;;;;;;;18.40;4.65;;;;;;;;;;5015495;28;20069;-62
2022/03/29 11:55:40;;;;;;;17.92;4.25;;;;;;;;;;5017254;28;20030;-62
2022/03/29 11:58:21;;;;;;;14.10;4.68;;;;;;;;;;5015555;28;20040;-62
2022/03/29 12:00:47;;;;;;;9.68;4.30;;;;;;;;;;5018972;28;20032;-62
2022/03/29 12:03:12;;;;;;;12.75;4.68;;;;;;;;;;5013103;28;20038;-62
2022/03/29 12:05:38;;;;;;;19.02;4.38;;;;;;;;;;5020098;28;20068;-62
2022/03/29 12:08:05;;;;;;;16.38;4.85;;;;;;;;;;5016908;28;20037;-62
2022/03/29 12:10:34;;;;;;;17.25;4.53;;;;;;;;;;5013586;28;20491;-62
2022/03/29 12:13:03;;;;;;;17.48;4.20;;;;;;;;;;5016916;28;20052;-62
2022/03/29 12:15:29;;;;;;;12.48;3.95;;;;;;;;;;5011468;28;20040;-62
2022/03/29 12:20:43;;;;;;;18.77;4.63;;;;;;;;;;5018332;28;20029;-62
2022/03/29 12:23:39;;;;;;;15.90;5.20;;;;;;;;;;5015308;28;20453;-63
2022/03/29 12:26:05;;;;;;;17.52;4.45;;;;;;;;;;5010552;28;20037;-62
2022/03/29 12:28:32;;;;;;;17.70;4.88;;;;;;;;;;5017220;28;20036;-63
2022/03/29 12:30:59;;;;;;;17.55;4.53;;;;;;;;;;5013441;28;20129;-62
2022/03/29 12:33:25;;;;;;;25.95;4.80;;;;;;;;;;5015517;28;20509;-62
2022/03/29 12:36:03;;;;;;;25.45;5.03;;;;;;;;;;5012629;28;20100;-63
2022/03/29 12:38:58;;;;;;;13.25;4.43;;;;;;;;;;5019589;28;20026;-62
2022/03/29 12:41:41;;;;;;;25.35;4.28;;;;;;;;;;5027304;28;20140;-62
2022/03/29 12:44:11;;;;;;;18.50;5.10;;;;;;;;;;5019669;28;20029;-62
2022/03/29 12:46:41;;;;;;;17.25;4.38;;;;;;;;;;5021995;28;20033;-62
2022/03/29 12:49:07;;;;;;;15.35;4.43;;;;;;;;;;5018941;28;20030;-62
2022/03/29 12:51:38;;;;;;;18.88;5.15;;;;;;;;;;5019493;28;20471;-62
2022/03/29 12:54:06;;;;;;;18.17;5.22;;;;;;;;;;5025891;28;20053;-62
2022/03/29 12:56:36;;;;;;;15.00;4.65;;;;;;;;;;5016829;28;20096;-62
2022/03/29 12:59:41;;;;;;;18.85;4.70;;;;;;;;;;5019822;28;20129;-63
2022/03/29 13:02:13;;;;;;;8.75;4.50;;;;;;;;;;5021297;28;20034;-62
2022/03/29 13:04:40;;;;;;;16.15;4.95;;;;;;;;;;5021759;28;20060;-62
2022/03/29 13:07:08;;;;;;;21.20;4.72;;;;;;;;;;5019162;28;20033;-63
2022/03/29 13:09:35;;;;;;;16.58;5.25;;;;;;;;;;5018910;28;20042;-60
2022/03/29 13:12:15;;;;;;;10.82;4.53;;;;;;;;;;5014907;28;20475;-62
2022/03/29 13:14:42;;;;;;;25.55;5.82;;;;;;;;;;5022667;28;20453;-63
2022/03/29 13:17:10;;;;;;;19.15;4.90;;;;;;;;;;5025279;28;20025;-62
2022/03/29 13:19:51;;;;;;;20.27;4.72;;;;;;;;;;5015470;28;20022;-62
2022/03/29 13:22:17;;;;;;;21.08;5.85;;;;;;;;;;5016473;28;20126;-62
2022/03/29 13:24:43;;;;;;;24.58;5.43;;;;;;;;;;5020917;28;20057;-63
2022/03/29 13:27:09;;;;;;;16.33;4.95;;;;;;;;;;5017306;28;20574;-63
2022/03/29 13:29:35;;;;;;;24.92;5.25;;;;;;;;;;5020817;28;20033;-62
2022/03/29 13:32:01;;;;;;;16.75;5.00;;;;;;;;;;5020262;28;20029;-62
2022/03/29 13:34:28;;;;;;;21.48;5.63;;;;;;;;;;5021810;28;20057;-62
2022/03/29 13:36:54;;;;;;;21.73;4.97;;;;;;;;;;5016576;28;20038;-61
2022/03/29 13:39:21;;;;;;;23.73;5.85;;;;;;;;;;5015250;28;20045;-62
2022/03/29 13:41:46;;;;;;;21.95;5.43;;;;;;;;;;5020484;28;20080;-63
2022/03/29 13:44:12;;;;;;;25.25;6.25;;;;;;;;;;5019264;28;20061;-62
2022/03/29 13:46:39;;;;;;;17.02;4.97;;;;;;;;;;5021510;28;20044;-63
2022/03/29 13:49:08;;;;;;;20.23;5.07;;;;;;;;;;5023778;28;20079;-63
2022/03/29 13:51:34;;;;;;;22.67;6.32;;;;;;;;;;5019387;28;20061;-60
2022/03/29 13:54:00;;;;;;;21.98;5.75;;;;;;;;;;5017642;28;20062;-63
2022/03/29 13:56:32;;;;;;;21.27;5.43;;;;;;;;;;5018942;28;20470;-63
2022/03/29 13:58:59;;;;;;;;;;;;;;;;;;5016853;28;20155;-62
2022/03/29 14:01:25;;;;;;;16.20;4.55;;;;;;;;;;5015132;28;19928;-63
2022/03/29 14:03:52;;;;;;;19.90;5.13;;;;;;;;;;5019828;28;20041;-62
2022/03/29 14:06:21;;;;;;;15.63;5.43;;;;;;;;;;5013815;28;20038;-62
2022/03/29 14:08:47;;;;;;;19.27;5.53;;;;;;;;;;5019411;28;20076;-63
2022/03/29 14:11:13;;;;;;;24.23;6.40;;;;;;;;;;5018248;28;20041;-62
2022/03/29 14:13:41;;;;;;;21.17;5.07;;;;;;;;;;5020548;28;20068;-61
2022/03/29 14:16:07;;;;;;;23.42;5.25;;;;;;;;;;5021562;28;20036;-62
2022/03/29 14:18:34;;;;;;;15.60;5.38;;;;;;;;;;5015348;28;20041;-62
2022/03/29 14:21:00;;;;;;;22.80;5.55;;;;;;;;;;5021162;28;20451;-62
2022/03/29 14:23:27;;;;;;;14.43;5.95;;;;;;;;;;5015426;28;20080;-62
2022/03/29 14:25:54;;;;;;;15.77;5.07;;;;;;;;;;5015584;28;20049;-62
2022/03/29 14:28:22;;;;;;;28.85;5.95;;;;;;;;;;5018607;28;20097;-62
2022/03/29 14:30:49;;;;;;;29.85;6.07;;;;;;;;;;5016792;28;20018;-62
2022/03/29 14:33:15;;;;;;;21.05;5.03;;;;;;;;;;5022808;28;20446;-62
2022/03/29 14:35:44;;;;;;;15.88;5.40;;;;;;;;;;5013400;28;20579;-62
2022/03/29 14:38:10;;;;;;;16.35;5.45;;;;;;;;;;5016062;28;20084;-62
2022/03/29 14:40:36;;;;;;;19.63;5.13;;;;;;;;;;5015736;28;20029;-63
2022/03/29 14:43:02;;;;;;;21.70;4.85;;;;;;;;;;5019176;28;20030;-62
2022/03/29 14:45:28;;;;;;;18.75;5.03;;;;;;;;;;5017334;28;20052;-62
2022/03/29 14:47:55;;;;;;;30.13;5.85;;;;;;;;;;5015112;28;20126;-62
2022/03/29 14:50:22;;;;;;;31.08;6.20;;;;;;;;;;5014875;28;20036;-63